createdAt,value
2022-08-05T00:00:17.321Z,7.03
2022-08-05T00:02:51.724Z,7.03
2022-08-05T00:06:02.817Z,6.72
2022-08-05T00:08:32.922Z,8.60
2022-08-05T00:11:00.983Z,7.40
2022-08-05T00:13:39.445Z,6.53
2022-08-05T00:16:12.186Z,8.05
2022-08-05T00:18:40.886Z,7.80
2022-08-05T00:21:10.149Z,7.90
2022-08-05T00:23:46.165Z,7.93
2022-08-05T00:26:20.878Z,8.30
2022-08-05T00:28:49.577Z,7.68
2022-08-05T00:31:53.827Z,8.30
2022-08-05T00:34:54.890Z,11.27
2022-08-05T00:37:11.208Z,8.60
2022-08-05T00:39:57.293Z,7.70
2022-08-05T00:42:32.091Z,7.20
2022-08-05T00:45:00.351Z,12.68
2022-08-05T00:47:31.642Z,7.50
2022-08-05T00:50:15.378Z,6.70
2022-08-05T00:52:45.535Z,8.15
2022-08-05T00:55:14.959Z,8.02
2022-08-05T00:57:57.980Z,6.72
2022-08-05T01:00:28.173Z,7.63
2022-08-05T01:02:56.508Z,7.33
2022-08-05T01:05:24.801Z,9.10
2022-08-05T01:08:39.950Z,7.25
2022-08-05T01:10:53.295Z,7.28
2022-08-05T01:13:57.465Z,6.72
2022-08-05T01:16:33.123Z,7.13
2022-08-05T01:19:06.620Z,8.57
2022-08-05T01:21:50.613Z,8.15
2022-08-05T01:24:39.357Z,8.85
2022-08-05T01:27:25.549Z,7.78
2022-08-05T01:29:54.833Z,7.23
2022-08-05T01:32:23.805Z,7.68
2022-08-05T01:34:57.571Z,7.78
2022-08-05T01:37:48.399Z,8.13
2022-08-05T01:40:18.035Z,7.28
2022-08-05T01:42:46.295Z,6.70
2022-08-05T01:45:14.401Z,7.10
2022-08-05T01:47:44.495Z,6.93
2022-08-05T01:50:28.581Z,9.38
2022-08-05T01:53:00.679Z,7.13
2022-08-05T01:55:29.223Z,6.93
2022-08-05T01:58:12.657Z,8.10
2022-08-05T02:00:45.750Z,6.55
2022-08-05T02:03:44.075Z,9.07
2022-08-05T02:06:23.918Z,6.80
2022-08-05T02:08:59.344Z,7.10
2022-08-05T02:11:33.359Z,7.55
2022-08-05T02:14:04.949Z,8.20
2022-08-05T02:16:42.015Z,7.43
2022-08-05T02:19:28.202Z,6.65
2022-08-05T02:22:08.630Z,8.60
2022-08-05T02:24:38.238Z,8.02
2022-08-05T02:27:10.158Z,8.82
2022-08-05T02:29:59.798Z,8.02
2022-08-05T02:32:29.250Z,8.38
2022-08-05T02:34:59.912Z,7.30
2022-08-05T02:37:37.013Z,7.20
2022-08-05T02:40:04.638Z,7.13
2022-08-05T02:42:37.144Z,7.47
2022-08-05T02:45:04.808Z,6.90
2022-08-05T02:48:06.769Z,7.80
2022-08-05T02:50:19.862Z,8.32
2022-08-05T02:52:47.184Z,8.65
2022-08-05T02:55:14.860Z,6.57
2022-08-05T02:58:11.235Z,9.13
2022-08-05T03:00:32.946Z,8.43
2022-08-05T03:03:01.677Z,8.90
2022-08-05T03:06:56.886Z,7.05
2022-08-05T03:08:16.675Z,9.30
2022-08-05T03:11:47.620Z,10.40
2022-08-05T03:13:51.605Z,8.27
2022-08-05T03:16:29.343Z,7.63
2022-08-05T03:19:12.588Z,8.95
2022-08-05T03:21:48.771Z,7.85
2022-08-05T03:24:29.404Z,8.10
2022-08-05T03:26:59.469Z,8.77
2022-08-05T03:29:45.939Z,8.07
2022-08-05T03:32:15.538Z,7.15
2022-08-05T03:34:47.238Z,6.90
2022-08-05T03:37:19.894Z,8.82
2022-08-05T03:40:01.820Z,8.83
2022-08-05T03:42:32.086Z,10.13
2022-08-05T03:45:01.877Z,8.70
2022-08-05T03:47:47.892Z,9.00
2022-08-05T03:50:17.072Z,8.40
2022-08-05T03:55:00.221Z,8.80
2022-08-05T03:56:27.883Z,8.88
2022-08-05T03:59:01.319Z,8.35
2022-08-05T04:01:32.236Z,8.98
2022-08-05T04:04:09.211Z,8.70
2022-08-05T04:06:37.988Z,7.57
2022-08-05T04:09:06.416Z,9.40
2022-08-05T04:11:50.491Z,10.48
2022-08-05T04:14:29.878Z,10.32
2022-08-05T04:17:00.104Z,10.38
2022-08-05T04:19:30.634Z,10.10
2022-08-05T04:22:08.529Z,10.00
2022-08-05T04:24:44.479Z,10.65
2022-08-05T04:27:13.471Z,8.98
2022-08-05T04:29:41.523Z,9.38
2022-08-05T04:32:09.893Z,10.63
2022-08-05T04:34:40.913Z,9.82
2022-08-05T04:37:10.476Z,8.90
2022-08-05T04:39:39.141Z,10.32
2022-08-05T04:42:07.954Z,9.85
2022-08-05T04:44:36.692Z,8.37
2022-08-05T04:47:09.943Z,8.48
2022-08-05T04:50:01.678Z,8.50
2022-08-05T04:52:27.672Z,9.70
2022-08-05T04:54:57.159Z,7.78
2022-08-05T04:57:28.543Z,8.17
2022-08-05T04:59:58.572Z,10.23
2022-08-05T05:02:37.433Z,13.20
2022-08-05T05:05:26.375Z,7.88
2022-08-05T05:08:14.140Z,10.35
2022-08-05T05:10:55.771Z,7.63
2022-08-05T05:13:23.398Z,10.15
2022-08-05T05:15:59.474Z,9.70
2022-08-05T05:18:34.237Z,9.50
2022-08-05T05:21:03.157Z,10.65
2022-08-05T05:24:02.310Z,10.70
2022-08-05T05:26:18.306Z,8.18
2022-08-05T05:28:45.691Z,8.52
2022-08-05T05:31:13.197Z,9.90
2022-08-05T05:33:59.783Z,9.07
2022-08-05T05:36:28.733Z,8.90
2022-08-05T05:38:58.014Z,9.40
2022-08-05T05:41:26.340Z,9.35
2022-08-05T05:44:35.608Z,9.20
2022-08-05T05:46:56.369Z,10.43
2022-08-05T05:49:25.570Z,9.83
2022-08-05T05:51:53.759Z,9.55
2022-08-05T05:54:22.201Z,10.52
2022-08-05T05:57:13.621Z,9.32
2022-08-05T05:59:47.159Z,7.90
2022-08-05T06:02:16.215Z,11.43
2022-08-05T06:04:44.649Z,8.63
2022-08-05T06:07:16.677Z,9.68
2022-08-05T06:10:03.434Z,12.43
2022-08-05T06:12:35.297Z,9.38
2022-08-05T06:15:13.535Z,7.73
2022-08-05T06:17:53.075Z,8.45
2022-08-05T06:20:21.924Z,8.93
2022-08-05T06:22:49.347Z,8.20
2022-08-05T06:25:59.028Z,10.27
2022-08-05T06:28:10.685Z,10.63
2022-08-05T06:30:40.611Z,8.15
2022-08-05T06:33:10.076Z,7.03
2022-08-05T06:36:07.749Z,8.43
2022-08-05T06:38:35.682Z,8.75
2022-08-05T06:41:05.292Z,9.07
2022-08-05T06:43:57.507Z,10.43
2022-08-05T06:46:29.678Z,10.43
2022-08-05T06:48:59.751Z,9.32
2022-08-05T06:51:30.790Z,9.98
2022-08-05T06:53:59.535Z,8.70
2022-08-05T06:56:28.399Z,7.85
2022-08-05T06:58:55.775Z,8.98
2022-08-05T07:01:23.603Z,12.43
2022-08-05T07:03:55.310Z,7.07
2022-08-05T07:06:23.716Z,10.03
2022-08-05T07:08:52.059Z,7.25
2022-08-05T07:11:25.520Z,6.82
2022-08-05T07:14:20.143Z,7.10
2022-08-05T07:18:08.130Z,7.60
2022-08-05T07:22:28.116Z,6.70
2022-08-05T07:25:21.935Z,6.57
2022-08-05T07:27:57.771Z,7.88
2022-08-05T07:30:38.995Z,10.48
2022-08-05T07:33:09.486Z,6.53
2022-08-05T07:36:04.849Z,6.75
2022-08-05T07:38:34.149Z,7.80
2022-08-05T07:42:07.128Z,7.20
2022-08-05T07:44:00.293Z,6.47
2022-08-05T07:46:29.308Z,7.23
2022-08-05T07:49:02.777Z,7.85
2022-08-05T07:51:37.359Z,8.52
2022-08-05T07:54:08.397Z,8.90
2022-08-05T07:57:00.793Z,7.40
2022-08-05T07:59:39.047Z,10.00
2022-08-05T08:02:15.750Z,7.25
2022-08-05T08:04:48.573Z,7.60
2022-08-05T08:07:18.097Z,7.25
2022-08-05T08:09:46.313Z,6.30
2022-08-05T08:12:30.587Z,6.00
2022-08-05T08:15:03.697Z,6.78
2022-08-05T08:17:32.801Z,8.75
2022-08-05T08:20:21.546Z,6.40
2022-08-05T08:22:54.286Z,6.03
2022-08-05T08:25:27.205Z,6.10
2022-08-05T08:28:18.758Z,7.15
2022-08-05T08:30:58.861Z,6.13
2022-08-05T08:33:27.292Z,6.03
2022-08-05T08:36:18.416Z,7.85
2022-08-05T08:38:43.675Z,7.13
2022-08-05T08:41:20.652Z,6.22
2022-08-05T08:45:20.398Z,7.30
2022-08-05T08:46:41.352Z,7.05
2022-08-05T08:50:07.631Z,6.05
2022-08-05T08:52:03.359Z,6.07
2022-08-05T08:54:36.568Z,5.70
2022-08-05T08:57:06.177Z,6.20
2022-08-05T08:59:39.070Z,6.03
2022-08-05T09:02:09.896Z,5.60
2022-08-05T09:04:58.154Z,5.60
2022-08-05T09:07:29.068Z,7.07
2022-08-05T09:09:57.052Z,9.30
2022-08-05T09:12:27.413Z,7.20
2022-08-05T09:14:59.420Z,7.60
2022-08-05T09:17:40.516Z,7.13
2022-08-05T09:20:09.880Z,6.50
2022-08-05T09:23:07.899Z,7.25
2022-08-05T09:26:01.958Z,6.55
2022-08-05T09:28:32.205Z,5.70
2022-08-05T09:31:43.396Z,8.27
2022-08-05T09:34:01.653Z,5.78
2022-08-05T09:36:54.323Z,6.22
2022-08-05T09:39:41.426Z,6.95
2022-08-05T09:42:17.510Z,5.95
2022-08-05T09:44:52.361Z,6.63
2022-08-05T09:47:48.490Z,6.18
2022-08-05T09:50:18.132Z,7.00
2022-08-05T09:53:02.424Z,7.45
2022-08-05T09:55:59.117Z,6.25
2022-08-05T09:58:23.326Z,5.73
2022-08-05T10:01:01.039Z,6.85
2022-08-05T10:03:56.475Z,5.50
2022-08-05T10:06:16.128Z,6.53
2022-08-05T10:08:43.488Z,6.57
2022-08-05T10:11:21.933Z,6.73
2022-08-05T10:13:54.676Z,5.75
2022-08-05T10:16:52.366Z,5.32
2022-08-05T10:19:23.693Z,5.60
2022-08-05T10:21:59.558Z,8.00
2022-08-05T10:24:27.373Z,6.53
2022-08-05T10:27:00.472Z,6.57
2022-08-05T10:30:07.143Z,5.68
2022-08-05T10:33:01.444Z,7.15
2022-08-05T10:35:07.432Z,4.55
2022-08-05T10:37:41.313Z,5.93
2022-08-05T10:40:39.153Z,5.80
2022-08-05T10:43:13.949Z,5.75
2022-08-05T10:45:42.062Z,6.35
2022-08-05T10:48:35.095Z,7.18
2022-08-05T10:51:22.101Z,5.47
2022-08-05T10:53:58.355Z,5.80
2022-08-05T10:56:30.157Z,5.93
2022-08-05T10:59:07.137Z,6.78
2022-08-05T11:01:54.947Z,5.78
2022-08-05T11:04:32.003Z,5.87
2022-08-05T11:07:06.563Z,6.13
2022-08-05T11:09:47.160Z,5.53
2022-08-05T11:12:27.150Z,6.95
2022-08-05T11:15:19.005Z,6.78
2022-08-05T11:17:59.417Z,5.83
2022-08-05T11:20:47.653Z,5.80
2022-08-05T11:24:02.847Z,6.88
2022-08-05T11:26:33.936Z,6.10
2022-08-05T11:29:12.027Z,6.28
2022-08-05T11:31:56.648Z,6.07
2022-08-05T11:34:37.804Z,6.25
2022-08-05T11:37:06.184Z,6.70
2022-08-05T11:40:00.671Z,6.70
2022-08-05T11:42:32.542Z,6.03
2022-08-05T11:45:06.164Z,6.80
2022-08-05T11:47:54.597Z,6.70
2022-08-05T11:50:22.946Z,5.47
2022-08-05T11:52:53.173Z,8.05
2022-08-05T11:55:32.312Z,6.40
2022-08-05T11:58:09.968Z,5.47
2022-08-05T12:00:41.289Z,5.70
2022-08-05T12:03:29.349Z,4.97
2022-08-05T12:06:02.851Z,5.80
2022-08-05T12:08:31.732Z,6.22
2022-08-05T12:11:04.128Z,7.10
2022-08-05T12:13:49.263Z,6.40
2022-08-05T12:16:27.149Z,7.00
2022-08-05T12:18:56.211Z,6.72
2022-08-05T12:21:24.702Z,6.22
2022-08-05T12:24:05.048Z,5.93
2022-08-05T12:26:36.257Z,7.10
2022-08-05T12:29:05.530Z,5.90
2022-08-05T12:31:43.676Z,5.80
2022-08-05T12:34:38.673Z,8.40
2022-08-05T12:37:17.113Z,6.43
2022-08-05T12:39:48.502Z,6.47
2022-08-05T12:42:19.801Z,6.22
2022-08-05T12:44:47.850Z,6.47
2022-08-05T12:47:28.645Z,5.30
2022-08-05T12:50:04.339Z,8.40
2022-08-05T12:52:39.081Z,5.78
2022-08-05T12:55:26.484Z,7.05
2022-08-05T12:58:38.693Z,5.68
2022-08-05T13:02:00.762Z,6.82
2022-08-05T13:03:33.025Z,7.60
2022-08-05T13:06:01.652Z,6.15
2022-08-05T13:08:32.938Z,6.03
2022-08-05T13:11:02.312Z,5.50
2022-08-05T13:14:06.560Z,6.25
2022-08-05T13:16:17.724Z,6.67
2022-08-05T13:18:55.297Z,5.70
2022-08-05T13:21:28.411Z,6.20
2022-08-05T13:24:08.873Z,5.35
2022-08-05T13:26:36.578Z,6.57
2022-08-05T13:29:05.124Z,6.17
2022-08-05T13:32:02.850Z,6.88
2022-08-05T13:34:25.832Z,6.05
2022-08-05T13:36:54.143Z,5.60
2022-08-05T13:40:13.140Z,5.97
2022-08-05T13:42:14.680Z,5.80
2022-08-05T13:44:46.269Z,5.97
2022-08-05T13:47:34.737Z,8.50
2022-08-05T13:50:04.416Z,5.82
2022-08-05T13:52:35.518Z,6.47
2022-08-05T13:55:07.463Z,5.70
2022-08-05T13:57:50.900Z,7.65
2022-08-05T14:00:27.432Z,5.90
2022-08-05T14:02:56.966Z,5.05
2022-08-05T14:05:48.084Z,6.35
2022-08-05T14:08:20.068Z,6.70
2022-08-05T14:10:48.993Z,7.55
2022-08-05T14:13:16.444Z,5.85
2022-08-05T14:16:05.835Z,7.80
2022-08-05T14:18:31.255Z,5.65
2022-08-05T14:21:00.126Z,6.17
2022-08-05T14:23:33.660Z,5.93
2022-08-05T14:26:04.955Z,5.78
2022-08-05T14:28:33.783Z,10.30
2022-08-05T14:31:02.127Z,6.05
2022-08-05T14:33:56.747Z,5.97
2022-08-05T14:36:21.531Z,6.22
2022-08-05T14:38:50.276Z,6.53
2022-08-05T14:41:18.688Z,6.13
2022-08-05T14:44:01.473Z,6.20
2022-08-05T14:46:39.232Z,6.20
2022-08-05T14:49:10.870Z,5.97
2022-08-05T14:51:42.836Z,6.15
2022-08-05T14:54:27.746Z,5.80
2022-08-05T14:56:57.972Z,5.70
2022-08-05T14:59:29.525Z,6.97
2022-08-05T15:02:15.769Z,5.95
2022-08-05T15:04:45.004Z,6.55
2022-08-05T15:08:06.315Z,5.45
2022-08-05T15:10:03.269Z,5.30
2022-08-05T15:12:41.057Z,7.13
2022-08-05T15:15:18.269Z,6.47
2022-08-05T15:18:05.956Z,6.70
2022-08-05T15:20:33.417Z,5.53
2022-08-05T15:23:07.850Z,6.38
2022-08-05T15:25:41.077Z,6.77
2022-08-05T15:28:19.163Z,5.50
2022-08-05T15:30:53.017Z,5.38
2022-08-05T15:33:56.678Z,6.45
2022-08-05T15:36:16.643Z,5.80
2022-08-05T15:38:46.416Z,5.50
2022-08-05T15:41:21.833Z,6.60
2022-08-05T15:43:51.501Z,5.25
2022-08-05T15:46:24.370Z,6.40
2022-08-05T15:48:58.018Z,5.85
2022-08-05T15:52:13.397Z,7.43
2022-08-05T15:54:16.741Z,6.63
2022-08-05T15:56:44.103Z,6.15
2022-08-05T15:59:21.750Z,6.00
2022-08-05T16:01:52.648Z,5.90
2022-08-05T16:04:25.551Z,5.47
2022-08-05T16:06:55.563Z,6.82
2022-08-05T16:09:24.093Z,6.80
2022-08-05T16:11:53.757Z,5.93
2022-08-05T16:14:22.574Z,8.05
2022-08-05T16:16:50.092Z,6.10
2022-08-05T16:19:25.887Z,5.60
2022-08-05T16:22:05.402Z,5.57
2022-08-05T16:24:41.626Z,6.07
2022-08-05T16:27:18.941Z,6.00
2022-08-05T16:29:50.880Z,5.90
2022-08-05T16:32:28.544Z,6.32
2022-08-05T16:34:58.968Z,5.35
2022-08-05T16:38:03.360Z,5.97
2022-08-05T16:40:28.650Z,10.05
2022-08-05T16:42:57.251Z,8.60
2022-08-05T16:46:07.098Z,5.70
2022-08-05T16:48:12.144Z,6.13
2022-08-05T16:50:54.170Z,7.25
2022-08-05T16:53:32.269Z,6.95
2022-08-05T16:56:10.268Z,5.73
2022-08-05T16:58:39.441Z,5.63
2022-08-05T17:01:07.106Z,6.13
2022-08-05T17:03:38.949Z,6.82
2022-08-05T17:06:06.663Z,5.95
2022-08-05T17:08:51.747Z,6.57
2022-08-05T17:11:23.903Z,5.93
2022-08-05T17:14:05.687Z,7.75
2022-08-05T17:16:36.139Z,5.82
2022-08-05T17:19:07.437Z,7.55
2022-08-05T17:21:37.637Z,5.87
2022-08-05T17:24:18.685Z,6.75
2022-08-05T17:26:57.541Z,6.75
2022-08-05T17:29:33.973Z,6.53
2022-08-05T17:32:16.574Z,7.07
2022-08-05T17:34:47.918Z,7.43
2022-08-05T17:37:40.688Z,7.18
2022-08-05T17:40:10.729Z,6.53
2022-08-05T17:42:42.971Z,8.65
2022-08-05T17:45:22.627Z,6.43
2022-08-05T17:47:54.521Z,7.50
2022-08-05T17:50:28.638Z,7.40
2022-08-05T17:52:59.283Z,8.90
2022-08-05T17:55:38.468Z,7.57
2022-08-05T17:58:13.219Z,7.35
2022-08-05T18:00:45.315Z,6.63
2022-08-05T18:03:33.211Z,7.88
2022-08-05T18:06:11.873Z,8.68
2022-08-05T18:08:44.470Z,10.30
2022-08-05T18:11:24.440Z,9.55
2022-08-05T18:14:03.597Z,8.93
2022-08-05T18:16:32.619Z,6.90
2022-08-05T18:18:59.872Z,10.57
2022-08-05T18:21:28.175Z,9.48
2022-08-05T18:24:14.947Z,8.70
2022-08-05T18:26:43.877Z,8.20
2022-08-05T18:29:11.363Z,9.00
2022-08-05T18:31:42.954Z,7.20
2022-08-05T18:34:12.808Z,8.77
2022-08-05T18:36:43.662Z,9.30
2022-08-05T18:39:42.264Z,10.27
2022-08-05T18:42:06.336Z,10.77
2022-08-05T18:44:48.983Z,8.95
2022-08-05T18:47:22.845Z,8.52
2022-08-05T18:50:15.772Z,7.78
2022-08-05T18:52:50.830Z,8.40
2022-08-05T18:55:19.538Z,11.57
2022-08-05T18:57:52.718Z,9.10
2022-08-05T19:00:25.013Z,11.48
2022-08-05T19:02:57.451Z,9.50
2022-08-05T19:06:12.019Z,9.97
2022-08-05T19:08:13.694Z,9.50
2022-08-05T19:10:42.913Z,9.77
2022-08-05T19:13:15.602Z,7.07
2022-08-05T19:15:59.020Z,11.52
2022-08-05T19:18:29.017Z,9.90
2022-08-05T19:20:56.698Z,9.93
2022-08-05T19:24:07.615Z,12.38
2022-08-05T19:26:12.250Z,9.13
2022-08-05T19:28:43.317Z,9.73
2022-08-05T19:31:13.693Z,10.50
2022-08-05T19:33:55.733Z,11.73
2022-08-05T19:36:25.756Z,10.35
2022-08-05T19:39:00.901Z,11.35
2022-08-05T19:41:58.293Z,11.55
2022-08-05T19:44:19.701Z,10.70
2022-08-05T19:46:47.233Z,8.73
2022-08-05T19:49:18.113Z,9.27
2022-08-05T19:52:05.861Z,8.85
2022-08-05T19:54:34.565Z,10.57
2022-08-05T19:57:08.418Z,9.40
2022-08-05T19:59:55.107Z,10.02
2022-08-05T20:02:26.009Z,14.90
2022-08-05T20:04:55.006Z,10.68
2022-08-05T20:07:46.854Z,10.75
2022-08-05T20:10:13.633Z,8.97
2022-08-05T20:12:47.634Z,12.50
2022-08-05T20:15:48.876Z,14.60
2022-08-05T20:18:10.267Z,12.55
2022-08-05T20:20:55.986Z,12.20
2022-08-05T20:23:39.269Z,15.90
2022-08-05T20:26:16.603Z,8.90
2022-08-05T20:28:46.240Z,11.90
2022-08-05T20:31:16.580Z,11.82
2022-08-05T20:33:44.984Z,9.75
2022-08-05T20:36:14.252Z,11.87
2022-08-05T20:38:54.265Z,10.43
2022-08-05T20:41:43.215Z,9.73
2022-08-05T20:44:28.920Z,7.82
2022-08-05T20:46:58.913Z,8.35
2022-08-05T20:49:26.643Z,10.87
2022-08-05T20:51:54.726Z,9.85
2022-08-05T20:54:25.986Z,9.90
2022-08-05T20:57:14.266Z,13.13
2022-08-05T21:00:10.219Z,9.88
2022-08-05T21:02:29.611Z,8.37
2022-08-05T21:04:57.177Z,8.32
2022-08-05T21:07:24.739Z,10.75
2022-08-05T21:10:13.753Z,8.15
2022-08-05T21:12:41.217Z,10.27
2022-08-05T21:15:26.120Z,12.53
2022-08-05T21:18:01.307Z,10.07
2022-08-05T21:20:33.036Z,10.30
2022-08-05T21:23:01.517Z,9.18
2022-08-05T21:25:33.949Z,9.52
2022-08-05T21:28:02.977Z,11.63
2022-08-05T21:30:31.570Z,11.90
2022-08-05T21:32:59.904Z,11.63
2022-08-05T21:35:55.343Z,10.38
2022-08-05T21:38:17.823Z,9.40
2022-08-05T21:40:45.266Z,8.97
2022-08-05T21:43:24.315Z,8.27
2022-08-05T21:45:57.803Z,8.77
2022-08-05T21:48:28.531Z,9.98
2022-08-05T21:50:57.255Z,9.35
2022-08-05T21:53:27.365Z,9.27
2022-08-05T21:56:06.030Z,10.20
2022-08-05T21:58:48.227Z,8.63
2022-08-05T22:01:26.187Z,8.75
2022-08-05T22:03:53.954Z,7.78
2022-08-05T22:06:23.095Z,9.13
2022-08-05T22:09:13.971Z,7.78
2022-08-05T22:11:43.308Z,8.73
2022-08-05T22:14:33.698Z,8.57
2022-08-05T22:17:05.097Z,8.15
2022-08-05T22:20:00.080Z,6.80
2022-08-05T22:22:27.769Z,7.68
2022-08-05T22:25:21.071Z,7.95
2022-08-05T22:28:08.359Z,10.25
2022-08-05T22:30:55.931Z,8.98
2022-08-05T22:33:55.622Z,6.93
2022-08-05T22:36:14.205Z,7.38
2022-08-05T22:38:48.712Z,7.65
2022-08-05T22:42:04.713Z,7.45
2022-08-05T22:44:08.145Z,7.63
2022-08-05T22:46:39.790Z,9.27
2022-08-05T22:49:12.432Z,7.95
2022-08-05T22:52:04.775Z,7.13
2022-08-05T22:54:36.351Z,6.95
2022-08-05T22:57:05.021Z,7.18
2022-08-05T22:59:45.161Z,10.13
2022-08-05T23:02:17.448Z,8.85
2022-08-05T23:04:51.941Z,9.50
2022-08-05T23:07:22.270Z,8.13
2022-08-05T23:09:57.666Z,8.32
2022-08-05T23:12:33.298Z,7.63
2022-08-05T23:15:09.132Z,8.18
2022-08-05T23:17:59.583Z,12.75
2022-08-05T23:20:24.566Z,8.07
2022-08-05T23:22:55.879Z,8.77
2022-08-05T23:25:53.155Z,8.33
2022-08-05T23:28:11.933Z,7.10
2022-08-05T23:30:43.913Z,7.63
2022-08-05T23:33:22.261Z,7.28
2022-08-05T23:35:55.803Z,7.72
2022-08-05T23:38:24.607Z,7.57
2022-08-05T23:40:52.576Z,8.82
2022-08-05T23:43:25.799Z,7.63
2022-08-05T23:46:20.146Z,8.90
2022-08-05T23:49:00.999Z,9.05
2022-08-05T23:51:53.567Z,7.07
2022-08-05T23:54:36.526Z,9.50
2022-08-05T23:57:06.602Z,8.00
